createdAt,value
2022-10-18T00:10:10.517Z,14.6
2022-10-18T00:30:11.442Z,14.6
2022-10-18T00:40:12.067Z,14.6
2022-10-18T00:50:12.842Z,14.6
2022-10-18T01:00:12.854Z,14.6
2022-10-18T01:10:13.672Z,14.5
2022-10-18T01:20:14.319Z,14.5
2022-10-18T01:30:14.886Z,14.5
2022-10-18T01:40:15.337Z,14.5
2022-10-18T02:00:16.620Z,14.4
2022-10-18T02:10:16.734Z,14.4
2022-10-18T02:30:17.978Z,14.4
2022-10-18T03:00:20.893Z,14.4
2022-10-18T03:30:21.642Z,14.5
2022-10-18T03:40:22.258Z,14.5
2022-10-18T03:50:22.459Z,14.5
2022-10-18T04:00:22.670Z,14.5
2022-10-18T04:10:23.388Z,14.5
2022-10-18T04:21:26.422Z,14.4
2022-10-18T05:11:24.348Z,14.4
2022-10-18T05:51:26.837Z,14.3
2022-10-18T06:01:27.596Z,14.2
2022-10-18T06:21:28.704Z,14.2
2022-10-18T06:31:29.320Z,14.3
2022-10-18T07:21:32.661Z,14.6
2022-10-18T07:51:34.917Z,14.8
2022-10-18T08:31:58.674Z,15.1
2022-10-18T09:01:43.543Z,15.6
2022-10-18T09:31:44.476Z,17.3
2022-10-18T10:01:45.517Z,18.3
2022-10-18T10:11:46.190Z,19.1
2022-10-18T10:21:47.243Z,19.3
2022-10-18T10:51:50.681Z,19.6
2022-10-18T11:01:50.814Z,19.1
2022-10-18T11:11:51.535Z,19
2022-10-18T11:21:51.975Z,19.1
2022-10-18T11:31:52.872Z,19.4
2022-10-18T12:51:56.984Z,20.2
2022-10-18T13:01:57.741Z,20.1
2022-10-18T13:12:01.803Z,20.3
2022-10-18T14:02:02.113Z,19.5
2022-10-18T14:12:02.669Z,19
2022-10-18T14:32:03.444Z,19.3
2022-10-18T14:42:04.205Z,18.6
2022-10-18T14:52:04.622Z,18.2
2022-10-18T15:02:05.302Z,18.1
2022-10-18T15:12:05.939Z,18
2022-10-18T15:22:32.029Z,17.8
2022-10-18T15:32:06.812Z,17.9
2022-10-18T15:42:07.077Z,17.7
2022-10-18T15:52:07.982Z,17.4
2022-10-18T16:02:08.886Z,16.9
2022-10-18T16:12:09.971Z,16.5
2022-10-18T16:22:11.016Z,15.9
2022-10-18T16:32:11.545Z,15.4
2022-10-18T16:42:12.624Z,14.8
2022-10-18T16:52:13.600Z,14.2
2022-10-18T17:02:14.579Z,13.7
2022-10-18T17:12:15.658Z,13.3
2022-10-18T17:22:16.506Z,13.1
2022-10-18T17:32:17.199Z,12.8
2022-10-18T17:52:18.354Z,12.2
2022-10-18T18:02:18.530Z,11.9
2022-10-18T18:12:18.760Z,11.7
2022-10-18T18:22:19.813Z,11.4
2022-10-18T18:32:20.105Z,11.2
2022-10-18T18:42:20.481Z,11.1
2022-10-18T18:52:21.445Z,10.9
2022-10-18T19:02:22.210Z,10.7
2022-10-18T19:12:22.636Z,10.6
2022-10-18T19:22:22.895Z,10.5
2022-10-18T19:32:23.778Z,10.4
2022-10-18T19:42:27.451Z,10.2
2022-10-18T19:52:25.139Z,10.2
2022-10-18T20:02:25.924Z,10.5
2022-10-18T20:12:26.187Z,10.6
2022-10-18T20:22:27.278Z,10.8
2022-10-18T20:42:28.710Z,10.6
2022-10-18T20:52:29.796Z,10.5
2022-10-18T21:02:30.354Z,10.2
2022-10-18T21:12:31.122Z,10
2022-10-18T21:22:31.194Z,9.8
2022-10-18T21:32:31.361Z,9.6
2022-10-18T21:42:31.665Z,9.3
2022-10-18T21:52:32.601Z,9
2022-10-18T22:02:33.437Z,8.8
2022-10-18T22:12:33.753Z,8.7
2022-10-18T22:22:33.877Z,8.5
2022-10-18T22:32:33.997Z,8.3
2022-10-18T22:52:35.278Z,8.1
2022-10-18T23:02:36.265Z,7.9
2022-10-18T23:12:36.445Z,8.1
2022-10-18T23:32:37.765Z,7.9
2022-10-18T23:42:38.822Z,7.7
2022-10-18T23:52:39.246Z,7.6
